Time;durP1;ratioP1;P1;durP2;ratioP2;P2;SDS_P1;SDS_P2;PMS_P1;PMS_P2;Temp;Humidity;BMP_temperature;BMP_pressure;BME280_temperature;BME280_humidity;BME280_pressure;Samples;Min_cycle;Max_cycle;Signal;HPM_P1;HPM_P2
2022/04/19 00:00:16;;;;;;;9.73;2.53;;;;;;;;;;5008221;28;20519;-92
2022/04/19 00:02:42;;;;;;;11.02;2.60;;;;;;;;;;5005228;28;20063;-94
2022/04/19 00:05:09;;;;;;;8.15;2.05;;;;;;;;;;5013971;28;20044;-92
2022/04/19 00:07:36;;;;;;;9.50;2.50;;;;;;;;;;5012564;28;20080;-90
2022/04/19 00:10:02;;;;;;;8.23;2.67;;;;;;;;;;5012132;28;20040;-93
2022/04/19 00:12:29;;;;;;;12.57;2.78;;;;;;;;;;5012972;28;20037;-94
2022/04/19 00:14:55;;;;;;;6.53;2.40;;;;;;;;;;5017849;28;20032;-91
2022/04/19 00:17:21;;;;;;;8.45;2.80;;;;;;;;;;5020196;28;20075;-93
2022/04/19 00:19:47;;;;;;;7.93;2.60;;;;;;;;;;4998885;28;20034;-94
2022/04/19 00:22:14;;;;;;;9.85;3.00;;;;;;;;;;5012377;28;20097;-94
2022/04/19 00:24:41;;;;;;;11.07;2.45;;;;;;;;;;5015828;28;20029;-94
2022/04/19 00:27:07;;;;;;;14.55;2.45;;;;;;;;;;5005891;28;20045;-92
2022/04/19 00:29:33;;;;;;;12.57;3.05;;;;;;;;;;5004976;28;20480;-91
2022/04/19 00:32:02;;;;;;;8.85;2.60;;;;;;;;;;4320900;28;10000282;-94
2022/04/19 00:34:28;;;;;;;14.60;2.92;;;;;;;;;;5005983;28;20030;-94
2022/04/19 00:36:55;;;;;;;8.27;2.08;;;;;;;;;;5026324;28;20540;-91
2022/04/19 00:39:21;;;;;;;8.95;2.50;;;;;;;;;;5026615;28;20048;-95
2022/04/19 00:41:48;;;;;;;8.68;2.55;;;;;;;;;;5014955;28;20044;-93
2022/04/19 00:44:14;;;;;;;18.77;5.38;;;;;;;;;;5027389;28;20033;-94
2022/04/19 00:46:41;;;;;;;22.48;11.00;;;;;;;;;;5011280;28;20042;-93
2022/04/19 00:49:07;;;;;;;23.50;9.55;;;;;;;;;;4676917;28;10000131;-93
2022/04/19 00:51:33;;;;;;;25.15;9.10;;;;;;;;;;5012978;28;20037;-92
2022/04/19 00:54:00;;;;;;;16.73;6.63;;;;;;;;;;5009319;28;20037;-92
2022/04/19 00:56:28;;;;;;;20.48;6.97;;;;;;;;;;5008688;28;20033;-94
2022/04/19 00:58:55;;;;;;;17.00;4.85;;;;;;;;;;5011533;28;20150;-93
2022/04/19 01:01:21;;;;;;;17.20;4.00;;;;;;;;;;5003662;28;20052;-93
2022/04/19 01:03:48;;;;;;;10.82;2.85;;;;;;;;;;5025261;28;20095;-93
2022/04/19 01:06:14;;;;;;;12.52;4.90;;;;;;;;;;5010182;28;20041;-95
2022/04/19 01:08:44;;;;;;;11.68;5.13;;;;;;;;;;4668474;28;9999988;-95
2022/04/19 01:13:55;;;;;;;24.75;11.00;;;;;;;;;;5021973;28;20144;-92
2022/04/19 01:16:22;;;;;;;21.80;8.13;;;;;;;;;;5004150;28;20044;-93
2022/04/19 01:18:48;;;;;;;20.05;6.20;;;;;;;;;;5007854;28;20090;-92
2022/04/19 01:21:15;;;;;;;17.08;3.83;;;;;;;;;;5022970;28;20049;-93
2022/04/19 01:23:41;;;;;;;22.40;4.20;;;;;;;;;;5007869;28;20037;-93
2022/04/19 01:26:07;;;;;;;11.23;3.20;;;;;;;;;;5021723;28;20192;-93
2022/04/19 01:28:34;;;;;;;12.38;4.28;;;;;;;;;;5002476;28;20041;-93
2022/04/19 01:31:00;;;;;;;15.95;5.30;;;;;;;;;;5013649;28;20047;-96
2022/04/19 01:33:27;;;;;;;16.75;5.57;;;;;;;;;;5013928;28;20026;-92
2022/04/19 01:35:56;;;;;;;17.02;5.57;;;;;;;;;;5008637;28;20384;-93
2022/04/19 01:38:22;;;;;;;20.27;6.70;;;;;;;;;;5008895;28;20057;-94
2022/04/19 01:40:48;;;;;;;20.73;7.72;;;;;;;;;;5028591;28;20037;-92
2022/04/19 01:43:15;;;;;;;25.38;10.20;;;;;;;;;;5013322;28;20037;-91
2022/04/19 01:45:41;;;;;;;30.52;10.68;;;;;;;;;;5009353;28;20067;-89
2022/04/19 01:48:08;;;;;;;24.13;8.43;;;;;;;;;;5015473;28;20041;-92
2022/04/19 01:50:37;;;;;;;17.48;5.43;;;;;;;;;;4663086;28;10000141;-89
2022/04/19 01:53:04;;;;;;;14.27;4.18;;;;;;;;;;5014981;28;20032;-89
2022/04/19 01:55:30;;;;;;;14.77;4.72;;;;;;;;;;5009906;28;20129;-89
2022/04/19 01:57:58;;;;;;;15.57;5.13;;;;;;;;;;5009272;28;20550;-89
2022/04/19 02:00:30;;;;;;;17.17;6.55;;;;;;;;;;5001468;28;20117;-89
2022/04/19 02:02:57;;;;;;;18.40;7.40;;;;;;;;;;5012623;28;20061;-91
2022/04/19 02:05:24;;;;;;;16.88;5.88;;;;;;;;;;5014000;28;20097;-89
2022/04/19 02:07:50;;;;;;;18.13;6.43;;;;;;;;;;5018584;28;20033;-89
2022/04/19 02:10:17;;;;;;;19.65;6.15;;;;;;;;;;5016899;28;20124;-89
2022/04/19 02:12:44;;;;;;;17.80;5.28;;;;;;;;;;5005019;28;20034;-89
2022/04/19 02:15:11;;;;;;;20.80;5.28;;;;;;;;;;5002168;28;20092;-89
2022/04/19 02:17:44;;;;;;;21.55;5.68;;;;;;;;;;5016792;28;20038;-90
2022/04/19 02:20:11;;;;;;;20.13;6.72;;;;;;;;;;5010193;28;20026;-90
2022/04/19 02:22:39;;;;;;;26.60;6.38;;;;;;;;;;4664480;28;10000583;-91
2022/04/19 02:25:06;;;;;;;22.73;6.10;;;;;;;;;;4667284;28;9999630;-90
2022/04/19 02:27:33;;;;;;;19.77;5.63;;;;;;;;;;5018379;28;20293;-90
2022/04/19 02:30:04;;;;;;;16.08;5.80;;;;;;;;;;5010390;28;20120;-90
2022/04/19 02:32:31;;;;;;;19.27;5.72;;;;;;;;;;5016977;28;20030;-90
2022/04/19 02:34:57;;;;;;;25.35;4.70;;;;;;;;;;5015000;28;20049;-92
2022/04/19 02:37:24;;;;;;;22.75;4.53;;;;;;;;;;5011345;28;20045;-90
2022/04/19 02:39:50;;;;;;;18.65;4.07;;;;;;;;;;5028346;28;20526;-91
2022/04/19 02:42:18;;;;;;;23.50;4.47;;;;;;;;;;5022642;28;20037;-90
2022/04/19 02:44:44;;;;;;;22.35;4.40;;;;;;;;;;5024883;28;20037;-91
2022/04/19 02:47:10;;;;;;;18.67;4.35;;;;;;;;;;5016572;28;20042;-92
2022/04/19 02:49:37;;;;;;;18.27;4.75;;;;;;;;;;5007945;28;20063;-90
2022/04/19 02:52:03;;;;;;;18.52;4.18;;;;;;;;;;5010161;28;20026;-92
2022/04/19 02:54:29;;;;;;;20.90;4.35;;;;;;;;;;5010215;28;20029;-91
2022/04/19 02:56:57;;;;;;;17.38;3.38;;;;;;;;;;5005235;28;20030;-93
2022/04/19 02:59:24;;;;;;;12.20;3.55;;;;;;;;;;5000560;28;20030;-91
2022/04/19 03:01:50;;;;;;;15.77;3.60;;;;;;;;;;5015017;28;20120;-92
2022/04/19 03:04:18;;;;;;;18.23;3.95;;;;;;;;;;5021473;28;20030;-91
2022/04/19 03:06:44;;;;;;;16.48;4.10;;;;;;;;;;5008883;28;20045;-89
2022/04/19 03:09:10;;;;;;;20.13;4.38;;;;;;;;;;5010834;28;20056;-92
2022/04/19 03:11:36;;;;;;;14.07;3.08;;;;;;;;;;5019595;28;20038;-89
2022/04/19 03:14:06;;;;;;;16.52;3.35;;;;;;;;;;3973777;28;10021450;-89
2022/04/19 03:16:33;;;;;;;21.95;3.60;;;;;;;;;;5013412;28;20484;-91
2022/04/19 03:18:59;;;;;;;17.85;3.30;;;;;;;;;;5007914;28;20038;-91
2022/04/19 03:21:25;;;;;;;11.15;3.20;;;;;;;;;;5010094;28;20172;-90
2022/04/19 03:29:22;;;;;;;16.70;3.55;;;;;;;;;;5019478;28;20072;-92
2022/04/19 03:31:48;;;;;;;15.13;3.50;;;;;;;;;;5006850;28;20025;-93
2022/04/19 03:34:14;;;;;;;21.05;3.53;;;;;;;;;;5012954;28;20060;-94
2022/04/19 03:36:41;;;;;;;15.88;3.10;;;;;;;;;;5012541;28;20049;-92
2022/04/19 03:39:07;;;;;;;13.85;3.90;;;;;;;;;;5015508;28;20049;-92
2022/04/19 03:41:33;;;;;;;14.18;3.88;;;;;;;;;;5011520;28;20120;-91
2022/04/19 03:43:59;;;;;;;18.15;3.67;;;;;;;;;;5008216;28;20045;-91
2022/04/19 03:46:26;;;;;;;17.33;3.13;;;;;;;;;;5030011;28;20045;-93
2022/04/19 03:48:53;;;;;;;16.88;3.45;;;;;;;;;;5013178;28;20038;-93
2022/04/19 03:51:20;;;;;;;13.85;2.72;;;;;;;;;;5033091;28;20040;-93
2022/04/19 03:53:46;;;;;;;11.02;2.58;;;;;;;;;;5014214;28;20507;-92
2022/04/19 03:56:13;;;;;;;15.63;2.63;;;;;;;;;;5015192;28;20055;-92
2022/04/19 03:58:39;;;;;;;17.58;2.85;;;;;;;;;;5015120;28;20025;-96
2022/04/19 04:01:05;;;;;;;16.17;2.63;;;;;;;;;;5007372;28;20060;-94
2022/04/19 04:03:31;;;;;;;19.38;2.20;;;;;;;;;;5015917;28;20545;-96
2022/04/19 04:05:58;;;;;;;12.10;2.40;;;;;;;;;;5026096;28;20025;-94
2022/04/19 04:08:24;;;;;;;14.50;2.78;;;;;;;;;;5008067;28;20033;-93
2022/04/19 04:10:51;;;;;;;11.57;2.72;;;;;;;;;;5015305;28;20491;-92
2022/04/19 04:13:17;;;;;;;16.88;2.70;;;;;;;;;;5016353;28;20045;-92
2022/04/19 04:15:44;;;;;;;15.25;2.85;;;;;;;;;;5004519;28;20026;-95
2022/04/19 04:18:10;;;;;;;14.35;2.70;;;;;;;;;;5012847;28;20094;-93
2022/04/19 04:20:36;;;;;;;17.63;3.40;;;;;;;;;;5028303;28;20072;-92
2022/04/19 04:23:03;;;;;;;18.55;3.47;;;;;;;;;;5010440;28;20038;-93
2022/04/19 04:25:29;;;;;;;14.00;3.22;;;;;;;;;;5015704;28;20088;-94
2022/04/19 04:27:55;;;;;;;18.95;3.25;;;;;;;;;;5034611;28;20033;-94
2022/04/19 04:30:22;;;;;;;18.73;3.08;;;;;;;;;;4996116;28;20104;-93
2022/04/19 04:32:48;;;;;;;17.20;2.72;;;;;;;;;;5007340;28;20034;-95
2022/04/19 04:35:15;;;;;;;31.92;3.30;;;;;;;;;;5027665;28;20041;-92
2022/04/19 04:37:41;;;;;;;15.27;2.65;;;;;;;;;;5006651;28;20050;-94
2022/04/19 04:40:08;;;;;;;24.20;2.85;;;;;;;;;;4994275;28;20515;-93
2022/04/19 04:42:34;;;;;;;12.45;2.70;;;;;;;;;;5013846;28;20034;-93
2022/04/19 04:45:00;;;;;;;13.52;2.47;;;;;;;;;;4998589;28;20056;-93
2022/04/19 04:50:13;;;;;;;15.25;1.80;;;;;;;;;;5021664;28;20495;-93
2022/04/19 04:52:40;;;;;;;14.52;2.00;;;;;;;;;;5017571;28;20038;-92
2022/04/19 04:55:07;;;;;;;16.35;1.83;;;;;;;;;;5028594;28;20029;-93
2022/04/19 04:57:33;;;;;;;13.45;2.33;;;;;;;;;;5004368;28;20044;-94
2022/04/19 04:59:59;;;;;;;12.82;2.40;;;;;;;;;;5005619;28;20025;-94
2022/04/19 05:02:26;;;;;;;14.77;2.50;;;;;;;;;;5010355;28;20133;-94
2022/04/19 05:04:52;;;;;;;15.30;2.30;;;;;;;;;;5023711;28;20108;-92
2022/04/19 05:07:19;;;;;;;10.80;2.67;;;;;;;;;;5022718;28;20030;-92
2022/04/19 05:09:45;;;;;;;11.13;2.13;;;;;;;;;;5012708;28;20038;-92
2022/04/19 05:12:12;;;;;;;17.75;2.50;;;;;;;;;;5014821;28;20033;-95
2022/04/19 05:14:39;;;;;;;14.50;2.45;;;;;;;;;;5023506;28;20093;-92
2022/04/19 05:17:05;;;;;;;9.95;2.20;;;;;;;;;;5025907;28;20485;-94
2022/04/19 05:19:32;;;;;;;15.77;2.80;;;;;;;;;;4995249;28;20034;-94
2022/04/19 05:21:58;;;;;;;18.65;2.83;;;;;;;;;;5006552;28;20384;-93
2022/04/19 05:24:25;;;;;;;8.30;2.88;;;;;;;;;;5003433;28;20053;-93
2022/04/19 05:26:51;;;;;;;7.85;2.55;;;;;;;;;;5010913;28;20129;-92
2022/04/19 05:29:18;;;;;;;15.88;2.95;;;;;;;;;;5027320;28;20026;-95
2022/04/19 05:31:44;;;;;;;14.13;2.67;;;;;;;;;;5008707;28;20029;-93
2022/04/19 05:34:10;;;;;;;13.27;2.95;;;;;;;;;;5031748;28;20563;-93
2022/04/19 05:36:37;;;;;;;13.80;2.95;;;;;;;;;;5000435;28;20041;-91
2022/04/19 05:39:04;;;;;;;25.25;3.80;;;;;;;;;;5011143;28;20041;-94
2022/04/19 05:41:31;;;;;;;18.75;3.83;;;;;;;;;;5000974;28;20080;-95
2022/04/19 05:43:57;;;;;;;16.60;3.80;;;;;;;;;;5015494;28;20030;-93
2022/04/19 05:46:24;;;;;;;21.40;4.00;;;;;;;;;;5015946;28;20048;-94
2022/04/19 05:48:50;;;;;;;16.40;4.05;;;;;;;;;;5018273;28;20026;-94
2022/04/19 05:51:16;;;;;;;21.95;4.63;;;;;;;;;;5010840;28;20026;-95
2022/04/19 05:53:43;;;;;;;18.92;5.13;;;;;;;;;;5022756;28;20460;-95
2022/04/19 05:56:09;;;;;;;23.48;5.15;;;;;;;;;;5033857;28;20033;-92
2022/04/19 05:58:36;;;;;;;21.38;5.25;;;;;;;;;;5012856;28;20045;-93
2022/04/19 06:01:02;;;;;;;20.80;5.28;;;;;;;;;;5014433;28;20115;-92
2022/04/19 06:06:14;;;;;;;18.83;5.07;;;;;;;;;;5026877;28;20125;-93
2022/04/19 06:08:41;;;;;;;14.32;4.05;;;;;;;;;;5018209;28;20092;-92
2022/04/19 06:11:11;;;;;;;18.15;4.63;;;;;;;;;;5013263;28;20053;-93
2022/04/19 06:13:37;;;;;;;21.40;4.57;;;;;;;;;;5018969;28;20034;-93
2022/04/19 06:16:04;;;;;;;20.92;4.70;;;;;;;;;;5015859;28;20026;-94
2022/04/19 06:18:30;;;;;;;14.63;4.50;;;;;;;;;;5026133;28;20030;-93
2022/04/19 06:20:56;;;;;;;29.67;5.20;;;;;;;;;;5031143;28;20025;-92
2022/04/19 06:23:23;;;;;;;14.32;4.40;;;;;;;;;;5010973;28;20034;-92
2022/04/19 06:25:50;;;;;;;20.70;4.25;;;;;;;;;;5011765;28;20037;-93
2022/04/19 06:28:17;;;;;;;16.25;4.10;;;;;;;;;;5024197;28;20117;-94
2022/04/19 06:30:44;;;;;;;17.33;3.65;;;;;;;;;;5007292;28;20061;-93
2022/04/19 06:33:11;;;;;;;17.67;3.78;;;;;;;;;;5029101;28;20030;-93
2022/04/19 06:35:37;;;;;;;17.35;4.45;;;;;;;;;;4997309;28;20481;-96
2022/04/19 06:38:03;;;;;;;16.98;4.80;;;;;;;;;;5013124;28;20195;-92
2022/04/19 06:40:30;;;;;;;24.95;5.45;;;;;;;;;;5031588;28;20045;-93
2022/04/19 06:42:57;;;;;;;11.65;5.15;;;;;;;;;;5012314;28;20036;-94
2022/04/19 06:45:24;;;;;;;19.60;5.82;;;;;;;;;;5012948;28;20037;-95
2022/04/19 06:47:57;;;;;;;22.65;5.35;;;;;;;;;;5026606;28;20053;-93
2022/04/19 06:50:23;;;;;;;16.42;4.55;;;;;;;;;;5007142;28;20551;-92
2022/04/19 06:52:51;;;;;;;18.83;4.80;;;;;;;;;;5010932;28;20053;-92
2022/04/19 06:55:19;;;;;;;16.35;4.70;;;;;;;;;;4316903;28;10000709;-93
2022/04/19 06:57:47;;;;;;;20.70;5.00;;;;;;;;;;4658585;28;10000078;-94
2022/04/19 07:00:14;;;;;;;14.40;4.45;;;;;;;;;;5004441;28;20484;-93
2022/04/19 07:02:40;;;;;;;18.85;5.40;;;;;;;;;;5004135;28;20067;-93
2022/04/19 07:05:06;;;;;;;18.10;5.35;;;;;;;;;;5013558;28;20033;-94
2022/04/19 07:07:33;;;;;;;24.85;4.95;;;;;;;;;;5013902;28;20108;-95
2022/04/19 07:09:59;;;;;;;17.92;4.05;;;;;;;;;;5029372;28;20030;-95
2022/04/19 07:12:26;;;;;;;20.02;4.43;;;;;;;;;;5013579;28;20029;-91
2022/04/19 07:14:52;;;;;;;10.98;4.50;;;;;;;;;;5013591;28;20033;-93
2022/04/19 07:17:18;;;;;;;14.38;4.57;;;;;;;;;;5009320;28;20030;-92
2022/04/19 07:28:02;;;;;;;16.50;4.43;;;;;;;;;;5033047;28;20164;-94
2022/04/19 07:30:29;;;;;;;15.40;4.68;;;;;;;;;;5016047;28;20033;-92
2022/04/19 07:32:56;;;;;;;10.68;4.15;;;;;;;;;;5015556;28;20152;-94
2022/04/19 07:35:22;;;;;;;13.70;5.03;;;;;;;;;;4998108;28;20034;-93
2022/04/19 07:37:49;;;;;;;18.27;5.15;;;;;;;;;;5025612;28;20059;-91
2022/04/19 07:40:15;;;;;;;23.80;5.97;;;;;;;;;;5029321;28;20524;-92
2022/04/19 07:42:42;;;;;;;23.92;4.93;;;;;;;;;;5013995;28;20039;-92
2022/04/19 07:45:09;;;;;;;19.98;5.18;;;;;;;;;;5003269;28;20036;-92
2022/04/19 07:47:35;;;;;;;22.35;4.93;;;;;;;;;;5008828;28;20466;-91
2022/04/19 07:50:02;;;;;;;20.30;4.53;;;;;;;;;;5015766;28;20033;-93
2022/04/19 07:52:28;;;;;;;18.27;4.38;;;;;;;;;;5025094;28;20065;-91
2022/04/19 07:54:55;;;;;;;22.75;4.90;;;;;;;;;;5010271;28;20037;-93
2022/04/19 07:57:21;;;;;;;14.98;4.13;;;;;;;;;;5002731;28;20097;-91
2022/04/19 07:59:48;;;;;;;20.55;4.53;;;;;;;;;;5004546;28;20424;-93
2022/04/19 08:02:14;;;;;;;13.02;4.57;;;;;;;;;;5010180;28;20034;-92
2022/04/19 08:04:41;;;;;;;15.65;4.32;;;;;;;;;;5005472;28;20468;-91
2022/04/19 08:07:07;;;;;;;13.07;3.88;;;;;;;;;;5000392;28;20046;-91
2022/04/19 08:09:33;;;;;;;14.63;4.53;;;;;;;;;;4999621;28;20029;-93
2022/04/19 08:12:00;;;;;;;17.25;4.95;;;;;;;;;;5030146;28;20061;-92
2022/04/19 08:14:26;;;;;;;14.27;4.97;;;;;;;;;;5029648;28;20029;-93
2022/04/19 08:16:52;;;;;;;20.35;4.70;;;;;;;;;;5028117;28;20509;-92
2022/04/19 08:19:19;;;;;;;14.82;4.97;;;;;;;;;;5005587;28;20040;-91
2022/04/19 08:21:45;;;;;;;12.35;3.85;;;;;;;;;;5013114;28;20069;-91
2022/04/19 08:24:12;;;;;;;13.68;4.05;;;;;;;;;;5004098;28;21310;-92
2022/04/19 08:26:38;;;;;;;19.13;4.45;;;;;;;;;;5001162;28;20049;-92
2022/04/19 08:29:05;;;;;;;13.10;4.90;;;;;;;;;;5019700;28;20033;-93
2022/04/19 08:31:31;;;;;;;15.55;5.18;;;;;;;;;;5023453;28;20107;-91
2022/04/19 08:33:57;;;;;;;26.00;5.50;;;;;;;;;;5009282;28;20103;-91
2022/04/19 08:36:24;;;;;;;20.40;5.40;;;;;;;;;;5026085;28;20083;-90
2022/04/19 08:38:50;;;;;;;19.67;4.72;;;;;;;;;;5004310;28;20499;-90
2022/04/19 08:41:20;;;;;;;15.85;4.68;;;;;;;;;;5008516;28;20041;-93
2022/04/19 08:43:46;;;;;;;14.60;5.13;;;;;;;;;;5005293;28;20044;-89
2022/04/19 08:46:14;;;;;;;24.65;5.75;;;;;;;;;;5005954;28;20132;-92
2022/04/19 08:48:44;;;;;;;19.10;5.18;;;;;;;;;;5006224;28;20160;-90
2022/04/19 08:51:12;;;;;;;12.10;4.60;;;;;;;;;;5008578;28;20129;-94
2022/04/19 08:59:09;;;;;;;15.18;4.60;;;;;;;;;;5024731;28;20036;-88
2022/04/19 09:01:35;;;;;;;12.70;4.38;;;;;;;;;;5006381;28;20037;-92
2022/04/19 09:04:04;;;;;;;18.65;5.15;;;;;;;;;;5010317;28;20163;-88
2022/04/19 09:06:54;;;;;;;19.67;4.72;;;;;;;;;;5003738;28;20065;-92
2022/04/19 09:09:24;;;;;;;14.68;4.60;;;;;;;;;;5015127;28;20049;-89
2022/04/19 09:11:51;;;;;;;12.50;4.18;;;;;;;;;;5030229;28;20072;-90
2022/04/19 09:14:18;;;;;;;12.63;4.25;;;;;;;;;;5013644;28;20030;-89
2022/04/19 09:16:44;;;;;;;11.98;6.30;;;;;;;;;;5028418;28;20084;-89
2022/04/19 09:19:11;;;;;;;14.95;5.55;;;;;;;;;;5012395;28;20041;-88
2022/04/19 09:21:38;;;;;;;16.73;5.55;;;;;;;;;;5002107;28;20072;-89
2022/04/19 09:24:23;;;;;;;14.88;4.80;;;;;;;;;;5011551;28;20034;-94
2022/04/19 09:26:49;;;;;;;19.17;4.88;;;;;;;;;;5010125;28;20058;-94
2022/04/19 09:29:21;;;;;;;15.50;5.28;;;;;;;;;;5007355;28;20560;-91
2022/04/19 09:31:50;;;;;;;12.00;5.05;;;;;;;;;;5005474;28;20037;-92
2022/04/19 09:34:28;;;;;;;14.20;5.30;;;;;;;;;;5007578;28;20037;-91
2022/04/19 09:37:07;;;;;;;12.43;4.85;;;;;;;;;;5006956;28;20041;-91
2022/04/19 09:39:37;;;;;;;16.38;5.00;;;;;;;;;;5011169;28;20042;-90
2022/04/19 09:42:08;;;;;;;21.17;5.20;;;;;;;;;;5017553;28;20021;-91
2022/04/19 09:44:37;;;;;;;15.13;5.28;;;;;;;;;;5009075;28;20555;-91
2022/04/19 09:47:08;;;;;;;11.07;5.10;;;;;;;;;;5014989;28;20033;-93
2022/04/19 09:50:03;;;;;;;16.13;4.60;;;;;;;;;;5023664;28;20053;-91
2022/04/19 09:52:32;;;;;;;15.85;4.53;;;;;;;;;;5007737;28;20113;-92
2022/04/19 09:55:04;;;;;;;16.15;4.53;;;;;;;;;;5009210;28;20050;-91
2022/04/19 09:57:36;;;;;;;11.10;4.22;;;;;;;;;;5013724;28;20076;-90
2022/04/19 10:00:05;;;;;;;12.63;4.47;;;;;;;;;;5028238;28;20038;-91
2022/04/19 10:08:11;;;;;;;20.73;4.90;;;;;;;;;;5014447;28;20056;-90
2022/04/19 10:10:38;;;;;;;12.93;4.85;;;;;;;;;;5014072;28;20033;-90
2022/04/19 10:13:06;;;;;;;14.70;4.95;;;;;;;;;;5010271;28;20033;-91
2022/04/19 10:15:33;;;;;;;11.63;4.57;;;;;;;;;;5026674;28;20037;-90
2022/04/19 10:18:00;;;;;;;17.23;5.90;;;;;;;;;;5010340;28;20034;-90
2022/04/19 10:20:34;;;;;;;15.30;5.60;;;;;;;;;;5012717;28;20033;-91
2022/04/19 10:23:02;;;;;;;16.67;5.43;;;;;;;;;;5013236;28;20431;-92
2022/04/19 10:25:41;;;;;;;18.92;5.72;;;;;;;;;;5017047;28;20124;-91
2022/04/19 10:28:30;;;;;;;22.73;6.28;;;;;;;;;;5021176;28;20041;-91
2022/04/19 10:30:57;;;;;;;20.05;6.18;;;;;;;;;;5007496;28;20046;-92
2022/04/19 10:33:41;;;;;;;16.45;6.13;;;;;;;;;;5009180;28;20038;-91
2022/04/19 10:36:12;;;;;;;20.35;6.13;;;;;;;;;;5005726;28;20480;-91
2022/04/19 10:38:38;;;;;;;16.95;6.13;;;;;;;;;;5028589;28;20108;-92
2022/04/19 10:41:05;;;;;;;17.65;6.70;;;;;;;;;;5024813;28;20029;-92
2022/04/19 10:43:31;;;;;;;16.58;6.38;;;;;;;;;;5006830;28;20041;-91
2022/04/19 10:46:17;;;;;;;16.08;6.20;;;;;;;;;;5013943;28;20033;-91
2022/04/19 10:49:02;;;;;;;20.38;7.05;;;;;;;;;;5005224;28;20038;-92
2022/04/19 10:51:29;;;;;;;13.80;5.95;;;;;;;;;;5017082;28;20036;-93
2022/04/19 10:53:55;;;;;;;18.00;6.10;;;;;;;;;;5013820;28;20059;-92
2022/04/19 10:56:21;;;;;;;18.10;6.43;;;;;;;;;;5002068;28;20037;-91
2022/04/19 10:58:48;;;;;;;28.98;6.97;;;;;;;;;;5008274;28;20030;-91
2022/04/19 11:01:31;;;;;;;27.02;6.45;;;;;;;;;;5022914;28;20036;-94
2022/04/19 11:03:57;;;;;;;14.85;6.28;;;;;;;;;;5004970;28;20045;-92
2022/04/19 11:06:34;;;;;;;17.73;6.28;;;;;;;;;;5003780;28;20505;-90
2022/04/19 11:09:19;;;;;;;16.77;6.95;;;;;;;;;;5001967;28;20116;-90
2022/04/19 11:11:53;;;;;;;20.48;6.63;;;;;;;;;;5002196;28;20037;-87
2022/04/19 11:14:23;;;;;;;24.58;6.40;;;;;;;;;;5003495;28;20033;-91
2022/04/19 11:17:13;;;;;;;23.80;6.88;;;;;;;;;;5005283;28;20538;-89
2022/04/19 11:19:39;;;;;;;14.80;5.40;;;;;;;;;;5018641;28;20091;-92
2022/04/19 11:22:06;;;;;;;20.17;6.50;;;;;;;;;;5022665;28;20026;-91
2022/04/19 11:24:51;;;;;;;13.32;5.22;;;;;;;;;;4993070;28;20389;-92
2022/04/19 11:27:19;;;;;;;16.50;6.00;;;;;;;;;;5010302;28;20041;-91
2022/04/19 11:29:47;;;;;;;21.60;6.35;;;;;;;;;;5025197;28;20045;-92
2022/04/19 11:32:13;;;;;;;17.08;6.25;;;;;;;;;;5020628;28;20033;-92
2022/04/19 11:34:40;;;;;;;15.77;7.32;;;;;;;;;;5022865;28;20037;-92
2022/04/19 11:37:06;;;;;;;27.90;6.90;;;;;;;;;;5002113;28;20038;-92
2022/04/19 11:47:58;;;;;;;19.85;7.35;;;;;;;;;;5022052;28;20161;-90
2022/04/19 11:50:26;;;;;;;15.07;6.95;;;;;;;;;;5009566;28;20034;-91
2022/04/19 11:52:52;;;;;;;19.17;7.45;;;;;;;;;;5008854;28;20033;-91
2022/04/19 11:55:22;;;;;;;19.40;7.45;;;;;;;;;;5003474;28;20042;-92
2022/04/19 11:57:49;;;;;;;17.70;7.85;;;;;;;;;;4995980;28;20038;-91
2022/04/19 12:00:20;;;;;;;26.63;7.60;;;;;;;;;;5007470;28;20041;-91
2022/04/19 12:02:50;;;;;;;17.90;8.50;;;;;;;;;;5009798;28;20144;-91
2022/04/19 12:05:26;;;;;;;19.67;7.40;;;;;;;;;;4661764;28;10000271;-91
2022/04/19 12:07:53;;;;;;;21.83;8.05;;;;;;;;;;5023268;28;20085;-91
2022/04/19 12:10:20;;;;;;;20.48;7.53;;;;;;;;;;5004385;28;20081;-91
2022/04/19 12:12:53;;;;;;;20.45;7.05;;;;;;;;;;5027454;28;20107;-89
2022/04/19 12:15:40;;;;;;;18.10;7.55;;;;;;;;;;5012322;28;20037;-90
2022/04/19 12:18:06;;;;;;;16.08;7.13;;;;;;;;;;5009728;28;20052;-91
2022/04/19 12:20:45;;;;;;;26.38;8.63;;;;;;;;;;5002445;28;20054;-93
2022/04/19 12:23:18;;;;;;;16.77;8.48;;;;;;;;;;5004216;28;20037;-89
2022/04/19 12:25:57;;;;;;;22.02;8.40;;;;;;;;;;5028507;28;20419;-90
2022/04/19 12:28:23;;;;;;;25.98;9.55;;;;;;;;;;5012087;28;20045;-90
2022/04/19 12:30:50;;;;;;;22.67;9.43;;;;;;;;;;5024521;28;20038;-90
2022/04/19 12:33:16;;;;;;;17.85;8.68;;;;;;;;;;5009723;28;20038;-90
2022/04/19 12:35:42;;;;;;;14.60;8.77;;;;;;;;;;5011903;28;20038;-91
2022/04/19 12:38:13;;;;;;;19.63;8.75;;;;;;;;;;5009642;28;20638;-91
2022/04/19 12:40:40;;;;;;;18.73;8.63;;;;;;;;;;5007486;28;20064;-91
2022/04/19 12:43:07;;;;;;;14.57;7.97;;;;;;;;;;5007525;28;20029;-92
2022/04/19 12:45:36;;;;;;;18.63;9.55;;;;;;;;;;5026374;28;20040;-92
2022/04/19 12:48:04;;;;;;;19.33;10.90;;;;;;;;;;5007560;28;20073;-91
2022/04/19 12:50:30;;;;;;;19.02;10.18;;;;;;;;;;5004209;28;20107;-91
2022/04/19 12:52:56;;;;;;;22.60;9.82;;;;;;;;;;5013022;28;20492;-91
2022/04/19 12:55:32;;;;;;;22.38;10.05;;;;;;;;;;5013291;28;20401;-91
2022/04/19 12:58:11;;;;;;;20.50;9.80;;;;;;;;;;5021680;28;20052;-90
2022/04/19 13:00:38;;;;;;;22.13;9.70;;;;;;;;;;5027866;28;20044;-90
2022/04/19 13:03:04;;;;;;;27.42;11.20;;;;;;;;;;5009318;28;20099;-92
2022/04/19 13:13:45;;;;;;;21.15;11.15;;;;;;;;;;5030116;28;20045;-92
2022/04/19 13:16:11;;;;;;;20.48;10.65;;;;;;;;;;5009536;28;20034;-91
2022/04/19 13:18:38;;;;;;;20.85;10.73;;;;;;;;;;5003965;28;20038;-92
2022/04/19 13:21:05;;;;;;;19.77;10.50;;;;;;;;;;5009574;28;20037;-92
2022/04/19 13:23:31;;;;;;;20.70;11.40;;;;;;;;;;5011233;28;20041;-93
2022/04/19 13:25:57;;;;;;;28.23;11.20;;;;;;;;;;5013609;28;20136;-95
2022/04/19 13:28:25;;;;;;;28.08;12.07;;;;;;;;;;5006987;28;20034;-93
2022/04/19 13:30:52;;;;;;;28.65;12.43;;;;;;;;;;5014998;28;20034;-93
2022/04/19 13:33:19;;;;;;;27.73;12.20;;;;;;;;;;5004169;28;20029;-91
2022/04/19 13:35:45;;;;;;;26.92;12.40;;;;;;;;;;5002120;28;20065;-92
2022/04/19 13:38:23;;;;;;;33.25;13.75;;;;;;;;;;5013967;28;20052;-93
2022/04/19 13:40:50;;;;;;;27.65;12.75;;;;;;;;;;5024879;28;20048;-93
2022/04/19 13:43:16;;;;;;;28.67;13.20;;;;;;;;;;5002766;28;20041;-92
2022/04/19 13:45:42;;;;;;;36.13;12.82;;;;;;;;;;5026452;28;20045;-92
2022/04/19 13:48:09;;;;;;;28.15;12.75;;;;;;;;;;5023663;28;20120;-95
2022/04/19 13:50:36;;;;;;;34.40;13.75;;;;;;;;;;5023233;28;20033;-94
2022/04/19 13:53:02;;;;;;;24.20;12.18;;;;;;;;;;5009251;28;20120;-92
2022/04/19 13:55:28;;;;;;;23.73;11.25;;;;;;;;;;5006681;28;20029;-91
2022/04/19 13:57:58;;;;;;;24.13;9.80;;;;;;;;;;5009359;28;20029;-92
2022/04/19 14:00:24;;;;;;;24.45;11.52;;;;;;;;;;5010364;28;20025;-92
2022/04/19 14:02:51;;;;;;;29.85;10.93;;;;;;;;;;5011229;28;20104;-94
2022/04/19 14:05:18;;;;;;;25.48;11.05;;;;;;;;;;5009494;28;20045;-93
2022/04/19 14:07:44;;;;;;;31.30;11.52;;;;;;;;;;5007675;28;20045;-93
2022/04/19 14:10:10;;;;;;;28.48;12.65;;;;;;;;;;5008670;28;20041;-93
2022/04/19 14:12:37;;;;;;;33.63;12.35;;;;;;;;;;5007139;28;20511;-94
2022/04/19 14:15:05;;;;;;;25.50;11.73;;;;;;;;;;5002753;28;20068;-92
2022/04/19 14:17:34;;;;;;;27.98;10.98;;;;;;;;;;5006649;28;20088;-93
2022/04/19 14:20:01;;;;;;;26.83;11.63;;;;;;;;;;5005010;28;20040;-92
2022/04/19 14:22:27;;;;;;;22.25;10.30;;;;;;;;;;5007601;28;20029;-94
2022/04/19 14:24:55;;;;;;;25.30;11.18;;;;;;;;;;5004963;28;20038;-92
2022/04/19 14:27:21;;;;;;;23.25;9.95;;;;;;;;;;5005785;28;20041;-93
2022/04/19 14:35:17;;;;;;;21.92;10.25;;;;;;;;;;5028904;28;20121;-92
2022/04/19 14:37:47;;;;;;;16.10;9.60;;;;;;;;;;5011041;28;20049;-94
2022/04/19 14:40:13;;;;;;;31.88;10.20;;;;;;;;;;5006550;28;20125;-93
2022/04/19 14:42:40;;;;;;;26.63;9.82;;;;;;;;;;5013478;28;20037;-93
2022/04/19 14:45:06;;;;;;;20.48;9.55;;;;;;;;;;5028567;28;20553;-95
2022/04/19 14:47:33;;;;;;;16.88;9.38;;;;;;;;;;5010886;28;20512;-93
2022/04/19 14:49:59;;;;;;;18.30;9.05;;;;;;;;;;5027822;28;20072;-92
2022/04/19 14:52:25;;;;;;;23.75;9.65;;;;;;;;;;5015918;28;20037;-92
2022/04/19 14:54:52;;;;;;;21.98;9.85;;;;;;;;;;5026927;28;20034;-93
2022/04/19 14:57:21;;;;;;;16.83;9.93;;;;;;;;;;5008724;28;20041;-93
2022/04/19 14:59:47;;;;;;;22.77;10.73;;;;;;;;;;5012848;28;20037;-93
2022/04/19 15:02:15;;;;;;;19.20;11.38;;;;;;;;;;5002059;28;20144;-92
2022/04/19 15:04:42;;;;;;;28.17;12.65;;;;;;;;;;5009473;28;20049;-93
2022/04/19 15:07:08;;;;;;;24.65;13.35;;;;;;;;;;5007422;28;20059;-93
2022/04/19 15:09:35;;;;;;;24.80;13.43;;;;;;;;;;5008054;28;20041;-92
2022/04/19 15:12:05;;;;;;;23.30;12.73;;;;;;;;;;5012982;28;20030;-94
2022/04/19 15:14:31;;;;;;;28.17;14.02;;;;;;;;;;5005387;28;20061;-91
2022/04/19 15:17:01;;;;;;;28.95;12.80;;;;;;;;;;5023129;28;20034;-92
2022/04/19 15:19:27;;;;;;;25.98;13.88;;;;;;;;;;5006312;28;20049;-93
2022/04/19 15:21:54;;;;;;;26.13;13.23;;;;;;;;;;5013069;28;20069;-92
2022/04/19 15:24:22;;;;;;;27.35;14.43;;;;;;;;;;5023404;28;20037;-93
2022/04/19 15:26:48;;;;;;;27.90;13.02;;;;;;;;;;5004958;28;20132;-94